sensor_id;sensor_type;location;lat;lon;timestamp;P1;durP1;ratioP1;P2;durP2;ratioP2
6053;SDS011;3055;50.886;14.814;2022-11-20T00:01:29;27.57;;;15.40;;
6053;SDS011;3055;50.886;14.814;2022-11-20T00:03:57;26.33;;;15.67;;
6053;SDS011;3055;50.886;14.814;2022-11-20T00:06:25;27.40;;;17.23;;
6053;SDS011;3055;50.886;14.814;2022-11-20T00:08:53;28.07;;;16.97;;
6053;SDS011;3055;50.886;14.814;2022-11-20T00:11:22;28.50;;;16.60;;
6053;SDS011;3055;50.886;14.814;2022-11-20T00:13:51;29.20;;;18.07;;
6053;SDS011;3055;50.886;14.814;2022-11-20T00:16:20;25.90;;;16.33;;
6053;SDS011;3055;50.886;14.814;2022-11-20T00:18:50;23.13;;;15.03;;
6053;SDS011;3055;50.886;14.814;2022-11-20T00:21:20;27.30;;;16.80;;
6053;SDS011;3055;50.886;14.814;2022-11-20T00:23:49;25.90;;;14.43;;
6053;SDS011;3055;50.886;14.814;2022-11-20T00:26:18;24.63;;;16.37;;
6053;SDS011;3055;50.886;14.814;2022-11-20T00:28:49;24.87;;;15.13;;
6053;SDS011;3055;50.886;14.814;2022-11-20T00:31:17;23.23;;;14.67;;
6053;SDS011;3055;50.886;14.814;2022-11-20T00:33:44;27.03;;;15.93;;
6053;SDS011;3055;50.886;14.814;2022-11-20T00:36:14;21.10;;;13.93;;
6053;SDS011;3055;50.886;14.814;2022-11-20T00:38:42;22.63;;;15.97;;
6053;SDS011;3055;50.886;14.814;2022-11-20T00:41:11;25.67;;;15.97;;
6053;SDS011;3055;50.886;14.814;2022-11-20T00:43:39;26.40;;;15.63;;
6053;SDS011;3055;50.886;14.814;2022-11-20T00:46:08;25.33;;;14.77;;
6053;SDS011;3055;50.886;14.814;2022-11-20T00:48:38;27.20;;;15.30;;
6053;SDS011;3055;50.886;14.814;2022-11-20T00:51:05;28.00;;;17.17;;
6053;SDS011;3055;50.886;14.814;2022-11-20T00:53:34;26.13;;;15.93;;
6053;SDS011;3055;50.886;14.814;2022-11-20T00:56:02;28.57;;;16.40;;
6053;SDS011;3055;50.886;14.814;2022-11-20T00:58:31;29.07;;;16.27;;
6053;SDS011;3055;50.886;14.814;2022-11-20T01:00:59;25.30;;;14.77;;
6053;SDS011;3055;50.886;14.814;2022-11-20T01:03:27;24.57;;;14.83;;
6053;SDS011;3055;50.886;14.814;2022-11-20T01:05:59;22.70;;;14.87;;
6053;SDS011;3055;50.886;14.814;2022-11-20T01:08:28;24.97;;;14.60;;
6053;SDS011;3055;50.886;14.814;2022-11-20T01:11:00;22.83;;;15.03;;
6053;SDS011;3055;50.886;14.814;2022-11-20T01:13:28;22.27;;;14.50;;
6053;SDS011;3055;50.886;14.814;2022-11-20T01:16:06;22.77;;;14.20;;
6053;SDS011;3055;50.886;14.814;2022-11-20T01:18:36;23.30;;;14.80;;
6053;SDS011;3055;50.886;14.814;2022-11-20T01:21:04;22.83;;;15.27;;
6053;SDS011;3055;50.886;14.814;2022-11-20T01:23:33;22.57;;;14.47;;
6053;SDS011;3055;50.886;14.814;2022-11-20T01:26:03;25.57;;;14.87;;
6053;SDS011;3055;50.886;14.814;2022-11-20T01:28:32;25.73;;;14.17;;
6053;SDS011;3055;50.886;14.814;2022-11-20T01:30:59;23.17;;;14.73;;
6053;SDS011;3055;50.886;14.814;2022-11-20T01:33:26;21.33;;;14.43;;
6053;SDS011;3055;50.886;14.814;2022-11-20T01:36:02;27.73;;;14.57;;
6053;SDS011;3055;50.886;14.814;2022-11-20T01:38:31;27.20;;;14.87;;
6053;SDS011;3055;50.886;14.814;2022-11-20T01:40:58;25.97;;;15.27;;
6053;SDS011;3055;50.886;14.814;2022-11-20T01:43:27;31.17;;;15.97;;
6053;SDS011;3055;50.886;14.814;2022-11-20T01:46:00;27.87;;;15.77;;
6053;SDS011;3055;50.886;14.814;2022-11-20T01:48:36;26.07;;;14.60;;
6053;SDS011;3055;50.886;14.814;2022-11-20T01:51:10;21.63;;;14.37;;
6053;SDS011;3055;50.886;14.814;2022-11-20T01:53:43;29.50;;;16.63;;
6053;SDS011;3055;50.886;14.814;2022-11-20T01:56:11;26.03;;;15.93;;
6053;SDS011;3055;50.886;14.814;2022-11-20T01:58:42;22.17;;;14.43;;
6053;SDS011;3055;50.886;14.814;2022-11-20T02:01:14;25.00;;;14.40;;
6053;SDS011;3055;50.886;14.814;2022-11-20T02:03:41;25.37;;;15.13;;
6053;SDS011;3055;50.886;14.814;2022-11-20T02:06:10;26.43;;;15.27;;
6053;SDS011;3055;50.886;14.814;2022-11-20T02:08:43;28.00;;;15.57;;
6053;SDS011;3055;50.886;14.814;2022-11-20T02:11:10;28.07;;;16.17;;
6053;SDS011;3055;50.886;14.814;2022-11-20T02:13:37;24.53;;;14.30;;
6053;SDS011;3055;50.886;14.814;2022-11-20T02:16:13;23.93;;;15.37;;
6053;SDS011;3055;50.886;14.814;2022-11-20T02:18:43;24.17;;;15.30;;
6053;SDS011;3055;50.886;14.814;2022-11-20T02:21:13;26.00;;;14.67;;
6053;SDS011;3055;50.886;14.814;2022-11-20T02:24:04;22.03;;;13.73;;
6053;SDS011;3055;50.886;14.814;2022-11-20T02:26:34;27.93;;;15.17;;
6053;SDS011;3055;50.886;14.814;2022-11-20T02:29:05;20.93;;;12.87;;
6053;SDS011;3055;50.886;14.814;2022-11-20T02:31:36;22.93;;;13.33;;
6053;SDS011;3055;50.886;14.814;2022-11-20T02:34:06;22.17;;;13.43;;
6053;SDS011;3055;50.886;14.814;2022-11-20T02:36:34;24.70;;;14.60;;
6053;SDS011;3055;50.886;14.814;2022-11-20T02:39:03;24.23;;;14.17;;
6053;SDS011;3055;50.886;14.814;2022-11-20T02:41:32;22.10;;;13.10;;
6053;SDS011;3055;50.886;14.814;2022-11-20T02:44:00;25.07;;;14.13;;
6053;SDS011;3055;50.886;14.814;2022-11-20T02:46:27;22.17;;;14.30;;
6053;SDS011;3055;50.886;14.814;2022-11-20T02:48:54;27.17;;;15.33;;
6053;SDS011;3055;50.886;14.814;2022-11-20T02:51:21;24.60;;;14.63;;
6053;SDS011;3055;50.886;14.814;2022-11-20T02:53:49;23.30;;;15.30;;
6053;SDS011;3055;50.886;14.814;2022-11-20T02:56:17;24.30;;;14.17;;
6053;SDS011;3055;50.886;14.814;2022-11-20T02:58:44;23.07;;;13.93;;
6053;SDS011;3055;50.886;14.814;2022-11-20T03:01:11;21.53;;;13.27;;
6053;SDS011;3055;50.886;14.814;2022-11-20T03:03:38;22.67;;;13.67;;
6053;SDS011;3055;50.886;14.814;2022-11-20T03:06:06;27.50;;;14.50;;
6053;SDS011;3055;50.886;14.814;2022-11-20T03:08:34;21.97;;;13.47;;
6053;SDS011;3055;50.886;14.814;2022-11-20T03:11:02;22.83;;;13.90;;
6053;SDS011;3055;50.886;14.814;2022-11-20T03:13:32;20.53;;;13.40;;
6053;SDS011;3055;50.886;14.814;2022-11-20T03:16:04;22.20;;;14.03;;
6053;SDS011;3055;50.886;14.814;2022-11-20T03:18:32;25.60;;;14.93;;
6053;SDS011;3055;50.886;14.814;2022-11-20T03:20:59;21.30;;;14.03;;
6053;SDS011;3055;50.886;14.814;2022-11-20T03:23:28;21.37;;;13.20;;
6053;SDS011;3055;50.886;14.814;2022-11-20T03:25:56;22.70;;;14.33;;
6053;SDS011;3055;50.886;14.814;2022-11-20T03:28:34;23.93;;;12.60;;
6053;SDS011;3055;50.886;14.814;2022-11-20T03:31:04;25.23;;;14.80;;
6053;SDS011;3055;50.886;14.814;2022-11-20T03:33:32;24.40;;;14.47;;
6053;SDS011;3055;50.886;14.814;2022-11-20T03:36:00;22.07;;;14.00;;
6053;SDS011;3055;50.886;14.814;2022-11-20T03:38:28;23.83;;;14.23;;
6053;SDS011;3055;50.886;14.814;2022-11-20T03:40:58;22.07;;;14.40;;
6053;SDS011;3055;50.886;14.814;2022-11-20T03:43:25;22.50;;;14.00;;
6053;SDS011;3055;50.886;14.814;2022-11-20T03:45:54;22.57;;;14.43;;
6053;SDS011;3055;50.886;14.814;2022-11-20T03:48:21;22.53;;;14.77;;
6053;SDS011;3055;50.886;14.814;2022-11-20T03:50:49;22.20;;;13.70;;
6053;SDS011;3055;50.886;14.814;2022-11-20T03:53:16;21.83;;;13.47;;
6053;SDS011;3055;50.886;14.814;2022-11-20T03:55:43;18.73;;;12.73;;
6053;SDS011;3055;50.886;14.814;2022-11-20T03:58:10;20.23;;;12.67;;
6053;SDS011;3055;50.886;14.814;2022-11-20T04:00:38;20.50;;;14.70;;
6053;SDS011;3055;50.886;14.814;2022-11-20T04:03:07;22.47;;;13.67;;
6053;SDS011;3055;50.886;14.814;2022-11-20T04:05:34;22.13;;;13.80;;
6053;SDS011;3055;50.886;14.814;2022-11-20T04:08:01;19.70;;;13.10;;
6053;SDS011;3055;50.886;14.814;2022-11-20T04:10:28;20.23;;;13.30;;
6053;SDS011;3055;50.886;14.814;2022-11-20T04:12:55;19.23;;;12.37;;
6053;SDS011;3055;50.886;14.814;2022-11-20T04:15:22;21.40;;;12.93;;
6053;SDS011;3055;50.886;14.814;2022-11-20T04:17:49;23.77;;;13.57;;
6053;SDS011;3055;50.886;14.814;2022-11-20T04:20:17;21.07;;;12.70;;
6053;SDS011;3055;50.886;14.814;2022-11-20T04:22:44;20.80;;;13.43;;
6053;SDS011;3055;50.886;14.814;2022-11-20T04:25:11;19.60;;;12.80;;
6053;SDS011;3055;50.886;14.814;2022-11-20T04:27:38;20.83;;;14.10;;
6053;SDS011;3055;50.886;14.814;2022-11-20T04:30:06;21.20;;;13.33;;
6053;SDS011;3055;50.886;14.814;2022-11-20T04:32:33;19.97;;;12.63;;
6053;SDS011;3055;50.886;14.814;2022-11-20T04:35:00;22.20;;;13.47;;
6053;SDS011;3055;50.886;14.814;2022-11-20T04:37:29;19.53;;;12.13;;
6053;SDS011;3055;50.886;14.814;2022-11-20T04:39:56;22.20;;;14.60;;
6053;SDS011;3055;50.886;14.814;2022-11-20T04:42:23;22.67;;;13.43;;
6053;SDS011;3055;50.886;14.814;2022-11-20T04:44:56;22.37;;;13.40;;
6053;SDS011;3055;50.886;14.814;2022-11-20T04:47:24;21.63;;;13.47;;
6053;SDS011;3055;50.886;14.814;2022-11-20T04:49:51;23.27;;;14.90;;
6053;SDS011;3055;50.886;14.814;2022-11-20T04:52:18;19.90;;;13.40;;
6053;SDS011;3055;50.886;14.814;2022-11-20T04:54:46;24.43;;;12.97;;
6053;SDS011;3055;50.886;14.814;2022-11-20T04:57:14;23.07;;;14.70;;
6053;SDS011;3055;50.886;14.814;2022-11-20T04:59:41;20.90;;;13.43;;
6053;SDS011;3055;50.886;14.814;2022-11-20T05:02:08;19.73;;;14.07;;
6053;SDS011;3055;50.886;14.814;2022-11-20T05:04:36;22.43;;;14.70;;
6053;SDS011;3055;50.886;14.814;2022-11-20T05:07:03;17.50;;;12.17;;
6053;SDS011;3055;50.886;14.814;2022-11-20T05:09:30;21.70;;;14.10;;
6053;SDS011;3055;50.886;14.814;2022-11-20T05:11:59;20.57;;;12.67;;
6053;SDS011;3055;50.886;14.814;2022-11-20T05:14:26;22.43;;;13.20;;
6053;SDS011;3055;50.886;14.814;2022-11-20T05:16:53;19.83;;;13.77;;
6053;SDS011;3055;50.886;14.814;2022-11-20T05:19:20;23.10;;;13.43;;
6053;SDS011;3055;50.886;14.814;2022-11-20T05:21:47;19.33;;;13.03;;
6053;SDS011;3055;50.886;14.814;2022-11-20T05:24:14;19.57;;;13.27;;
6053;SDS011;3055;50.886;14.814;2022-11-20T05:26:41;23.10;;;13.20;;
6053;SDS011;3055;50.886;14.814;2022-11-20T05:29:10;19.63;;;13.27;;
6053;SDS011;3055;50.886;14.814;2022-11-20T05:31:38;20.57;;;12.80;;
6053;SDS011;3055;50.886;14.814;2022-11-20T05:34:06;22.30;;;13.90;;
6053;SDS011;3055;50.886;14.814;2022-11-20T05:36:33;20.57;;;13.33;;
6053;SDS011;3055;50.886;14.814;2022-11-20T05:39:00;21.77;;;13.57;;
6053;SDS011;3055;50.886;14.814;2022-11-20T05:41:28;18.97;;;12.43;;
6053;SDS011;3055;50.886;14.814;2022-11-20T05:43:55;19.47;;;13.77;;
6053;SDS011;3055;50.886;14.814;2022-11-20T05:46:24;24.20;;;13.73;;
6053;SDS011;3055;50.886;14.814;2022-11-20T05:48:51;23.63;;;13.87;;
6053;SDS011;3055;50.886;14.814;2022-11-20T05:51:18;21.00;;;13.57;;
6053;SDS011;3055;50.886;14.814;2022-11-20T05:53:45;20.40;;;13.73;;
6053;SDS011;3055;50.886;14.814;2022-11-20T05:56:13;24.50;;;13.60;;
6053;SDS011;3055;50.886;14.814;2022-11-20T05:58:41;22.40;;;13.97;;
6053;SDS011;3055;50.886;14.814;2022-11-20T06:01:10;22.13;;;12.97;;
6053;SDS011;3055;50.886;14.814;2022-11-20T06:03:40;20.10;;;12.93;;
6053;SDS011;3055;50.886;14.814;2022-11-20T06:06:11;20.33;;;13.10;;
6053;SDS011;3055;50.886;14.814;2022-11-20T06:08:38;21.43;;;13.23;;
6053;SDS011;3055;50.886;14.814;2022-11-20T06:11:06;21.33;;;12.83;;
6053;SDS011;3055;50.886;14.814;2022-11-20T06:13:35;22.10;;;13.17;;
6053;SDS011;3055;50.886;14.814;2022-11-20T06:16:03;20.03;;;12.97;;
6053;SDS011;3055;50.886;14.814;2022-11-20T06:18:31;20.80;;;13.23;;
6053;SDS011;3055;50.886;14.814;2022-11-20T06:21:03;22.53;;;13.70;;
6053;SDS011;3055;50.886;14.814;2022-11-20T06:23:32;19.90;;;12.87;;
6053;SDS011;3055;50.886;14.814;2022-11-20T06:26:01;21.10;;;13.60;;
6053;SDS011;3055;50.886;14.814;2022-11-20T06:28:29;21.27;;;13.10;;
6053;SDS011;3055;50.886;14.814;2022-11-20T06:30:56;20.63;;;13.23;;
6053;SDS011;3055;50.886;14.814;2022-11-20T06:33:24;19.23;;;13.43;;
6053;SDS011;3055;50.886;14.814;2022-11-20T06:35:51;21.83;;;13.33;;
6053;SDS011;3055;50.886;14.814;2022-11-20T06:38:20;22.47;;;12.90;;
6053;SDS011;3055;50.886;14.814;2022-11-20T06:40:47;23.33;;;13.73;;
6053;SDS011;3055;50.886;14.814;2022-11-20T06:43:14;19.73;;;13.30;;
6053;SDS011;3055;50.886;14.814;2022-11-20T06:45:41;22.70;;;13.50;;
6053;SDS011;3055;50.886;14.814;2022-11-20T06:48:08;24.87;;;14.40;;
6053;SDS011;3055;50.886;14.814;2022-11-20T06:50:36;20.23;;;13.90;;
6053;SDS011;3055;50.886;14.814;2022-11-20T06:53:04;23.97;;;14.07;;
6053;SDS011;3055;50.886;14.814;2022-11-20T06:55:32;22.30;;;13.83;;
6053;SDS011;3055;50.886;14.814;2022-11-20T06:57:59;23.20;;;13.77;;
6053;SDS011;3055;50.886;14.814;2022-11-20T07:00:26;24.53;;;14.53;;
6053;SDS011;3055;50.886;14.814;2022-11-20T07:02:54;21.67;;;13.47;;
6053;SDS011;3055;50.886;14.814;2022-11-20T07:05:21;25.23;;;14.60;;
6053;SDS011;3055;50.886;14.814;2022-11-20T07:07:48;24.77;;;14.00;;
6053;SDS011;3055;50.886;14.814;2022-11-20T07:10:15;21.67;;;13.83;;
6053;SDS011;3055;50.886;14.814;2022-11-20T07:12:48;26.50;;;16.10;;
6053;SDS011;3055;50.886;14.814;2022-11-20T07:15:16;21.93;;;14.50;;
6053;SDS011;3055;50.886;14.814;2022-11-20T07:17:43;23.70;;;14.03;;
6053;SDS011;3055;50.886;14.814;2022-11-20T07:20:14;23.70;;;14.93;;
6053;SDS011;3055;50.886;14.814;2022-11-20T07:22:42;22.83;;;14.13;;
6053;SDS011;3055;50.886;14.814;2022-11-20T07:25:09;24.17;;;14.27;;
6053;SDS011;3055;50.886;14.814;2022-11-20T07:27:36;21.03;;;14.57;;
6053;SDS011;3055;50.886;14.814;2022-11-20T07:30:05;21.97;;;14.37;;
6053;SDS011;3055;50.886;14.814;2022-11-20T07:32:33;22.70;;;14.70;;
6053;SDS011;3055;50.886;14.814;2022-11-20T07:35:00;21.93;;;14.43;;
6053;SDS011;3055;50.886;14.814;2022-11-20T07:37:27;25.17;;;15.63;;
6053;SDS011;3055;50.886;14.814;2022-11-20T07:39:54;20.53;;;14.47;;
6053;SDS011;3055;50.886;14.814;2022-11-20T07:42:21;20.33;;;14.60;;
6053;SDS011;3055;50.886;14.814;2022-11-20T07:44:48;22.93;;;14.90;;
6053;SDS011;3055;50.886;14.814;2022-11-20T07:47:17;22.03;;;14.93;;
6053;SDS011;3055;50.886;14.814;2022-11-20T07:49:44;22.93;;;14.07;;
6053;SDS011;3055;50.886;14.814;2022-11-20T07:52:11;25.17;;;15.80;;
6053;SDS011;3055;50.886;14.814;2022-11-20T07:54:38;24.20;;;16.77;;
6053;SDS011;3055;50.886;14.814;2022-11-20T07:57:05;25.73;;;15.23;;
6053;SDS011;3055;50.886;14.814;2022-11-20T07:59:32;23.97;;;14.60;;
6053;SDS011;3055;50.886;14.814;2022-11-20T08:01:59;24.33;;;15.10;;
6053;SDS011;3055;50.886;14.814;2022-11-20T08:04:27;23.00;;;15.17;;
6053;SDS011;3055;50.886;14.814;2022-11-20T08:06:54;24.20;;;15.80;;
6053;SDS011;3055;50.886;14.814;2022-11-20T08:09:21;24.73;;;15.40;;
6053;SDS011;3055;50.886;14.814;2022-11-20T08:11:48;28.63;;;15.63;;
6053;SDS011;3055;50.886;14.814;2022-11-20T08:14:33;23.10;;;14.60;;
6053;SDS011;3055;50.886;14.814;2022-11-20T08:17:00;24.87;;;15.73;;
6053;SDS011;3055;50.886;14.814;2022-11-20T08:19:28;27.27;;;16.70;;
6053;SDS011;3055;50.886;14.814;2022-11-20T08:21:55;22.93;;;14.83;;
6053;SDS011;3055;50.886;14.814;2022-11-20T08:24:22;27.80;;;15.50;;
6053;SDS011;3055;50.886;14.814;2022-11-20T08:26:51;24.87;;;15.47;;
6053;SDS011;3055;50.886;14.814;2022-11-20T08:29:18;25.60;;;15.20;;
6053;SDS011;3055;50.886;14.814;2022-11-20T08:31:45;22.90;;;14.30;;
6053;SDS011;3055;50.886;14.814;2022-11-20T08:34:12;24.73;;;14.60;;
6053;SDS011;3055;50.886;14.814;2022-11-20T08:36:41;27.23;;;16.40;;
6053;SDS011;3055;50.886;14.814;2022-11-20T08:39:11;26.70;;;16.67;;
6053;SDS011;3055;50.886;14.814;2022-11-20T08:41:38;27.17;;;17.03;;
6053;SDS011;3055;50.886;14.814;2022-11-20T08:44:06;27.60;;;16.87;;
6053;SDS011;3055;50.886;14.814;2022-11-20T08:46:34;27.67;;;17.23;;
6053;SDS011;3055;50.886;14.814;2022-11-20T08:49:02;27.63;;;17.30;;
6053;SDS011;3055;50.886;14.814;2022-11-20T08:51:29;28.63;;;17.27;;
6053;SDS011;3055;50.886;14.814;2022-11-20T08:53:58;31.63;;;18.83;;
6053;SDS011;3055;50.886;14.814;2022-11-20T08:56:25;30.07;;;17.93;;
6053;SDS011;3055;50.886;14.814;2022-11-20T08:58:52;26.23;;;17.70;;
6053;SDS011;3055;50.886;14.814;2022-11-20T09:01:19;28.30;;;18.13;;
6053;SDS011;3055;50.886;14.814;2022-11-20T09:03:47;28.47;;;18.00;;
6053;SDS011;3055;50.886;14.814;2022-11-20T09:06:14;27.73;;;17.27;;
6053;SDS011;3055;50.886;14.814;2022-11-20T09:08:42;27.83;;;16.53;;
6053;SDS011;3055;50.886;14.814;2022-11-20T09:11:10;28.30;;;17.57;;
6053;SDS011;3055;50.886;14.814;2022-11-20T09:13:37;28.47;;;17.53;;
6053;SDS011;3055;50.886;14.814;2022-11-20T09:16:05;28.63;;;18.13;;
6053;SDS011;3055;50.886;14.814;2022-11-20T09:18:34;28.43;;;18.10;;
6053;SDS011;3055;50.886;14.814;2022-11-20T09:21:03;27.47;;;17.73;;
6053;SDS011;3055;50.886;14.814;2022-11-20T09:23:32;29.53;;;17.50;;
6053;SDS011;3055;50.886;14.814;2022-11-20T09:26:04;26.67;;;15.07;;
6053;SDS011;3055;50.886;14.814;2022-11-20T09:28:33;25.73;;;16.23;;
6053;SDS011;3055;50.886;14.814;2022-11-20T09:31:03;24.73;;;15.50;;
6053;SDS011;3055;50.886;14.814;2022-11-20T09:33:32;25.27;;;15.83;;
6053;SDS011;3055;50.886;14.814;2022-11-20T09:35:59;25.13;;;15.83;;
6053;SDS011;3055;50.886;14.814;2022-11-20T09:38:26;24.90;;;16.37;;
6053;SDS011;3055;50.886;14.814;2022-11-20T09:40:55;30.87;;;17.47;;
6053;SDS011;3055;50.886;14.814;2022-11-20T09:43:27;23.63;;;14.47;;
6053;SDS011;3055;50.886;14.814;2022-11-20T09:46:08;24.00;;;15.57;;
6053;SDS011;3055;50.886;14.814;2022-11-20T09:51:37;26.10;;;16.17;;
6053;SDS011;3055;50.886;14.814;2022-11-20T09:54:15;26.13;;;16.77;;
6053;SDS011;3055;50.886;14.814;2022-11-20T09:56:45;24.87;;;14.83;;
6053;SDS011;3055;50.886;14.814;2022-11-20T09:59:22;28.73;;;17.43;;
6053;SDS011;3055;50.886;14.814;2022-11-20T10:01:55;24.97;;;15.10;;
6053;SDS011;3055;50.886;14.814;2022-11-20T10:04:23;26.57;;;16.17;;
6053;SDS011;3055;50.886;14.814;2022-11-20T10:06:52;20.57;;;13.97;;
6053;SDS011;3055;50.886;14.814;2022-11-20T10:09:28;20.70;;;13.63;;
6053;SDS011;3055;50.886;14.814;2022-11-20T10:12:03;19.50;;;13.63;;
6053;SDS011;3055;50.886;14.814;2022-11-20T10:14:42;21.10;;;13.43;;
6053;SDS011;3055;50.886;14.814;2022-11-20T10:17:19;20.50;;;12.87;;
6053;SDS011;3055;50.886;14.814;2022-11-20T10:19:56;21.37;;;13.47;;
6053;SDS011;3055;50.886;14.814;2022-11-20T10:22:37;26.47;;;15.00;;
6053;SDS011;3055;50.886;14.814;2022-11-20T10:25:13;19.67;;;12.80;;
6053;SDS011;3055;50.886;14.814;2022-11-20T10:30:33;21.33;;;14.47;;
6053;SDS011;3055;50.886;14.814;2022-11-20T10:33:04;20.03;;;12.63;;
6053;SDS011;3055;50.886;14.814;2022-11-20T10:35:39;22.70;;;15.17;;
6053;SDS011;3055;50.886;14.814;2022-11-20T10:38:12;21.93;;;13.83;;
6053;SDS011;3055;50.886;14.814;2022-11-20T10:40:46;20.90;;;14.33;;
6053;SDS011;3055;50.886;14.814;2022-11-20T10:43:17;21.63;;;13.57;;
6053;SDS011;3055;50.886;14.814;2022-11-20T10:45:50;20.80;;;13.83;;
6053;SDS011;3055;50.886;14.814;2022-11-20T10:48:23;22.47;;;16.43;;
6053;SDS011;3055;50.886;14.814;2022-11-20T10:50:59;20.17;;;14.03;;
6053;SDS011;3055;50.886;14.814;2022-11-20T10:56:32;22.70;;;14.60;;
6053;SDS011;3055;50.886;14.814;2022-11-20T10:59:10;21.07;;;14.73;;
6053;SDS011;3055;50.886;14.814;2022-11-20T11:01:52;19.73;;;13.43;;
6053;SDS011;3055;50.886;14.814;2022-11-20T11:04:28;18.57;;;12.80;;
6053;SDS011;3055;50.886;14.814;2022-11-20T11:07:03;19.97;;;14.17;;
6053;SDS011;3055;50.886;14.814;2022-11-20T11:09:36;20.63;;;13.57;;
6053;SDS011;3055;50.886;14.814;2022-11-20T11:12:06;18.20;;;13.03;;
6053;SDS011;3055;50.886;14.814;2022-11-20T11:14:41;18.57;;;12.50;;
6053;SDS011;3055;50.886;14.814;2022-11-20T11:17:27;20.03;;;14.43;;
6053;SDS011;3055;50.886;14.814;2022-11-20T11:20:05;19.63;;;13.33;;
6053;SDS011;3055;50.886;14.814;2022-11-20T11:22:43;19.30;;;13.10;;
6053;SDS011;3055;50.886;14.814;2022-11-20T11:25:18;20.67;;;13.90;;
6053;SDS011;3055;50.886;14.814;2022-11-20T11:27:51;24.57;;;15.13;;
6053;SDS011;3055;50.886;14.814;2022-11-20T11:30:20;27.43;;;16.03;;
6053;SDS011;3055;50.886;14.814;2022-11-20T11:32:49;22.47;;;14.50;;
6053;SDS011;3055;50.886;14.814;2022-11-20T11:35:21;27.43;;;15.40;;
6053;SDS011;3055;50.886;14.814;2022-11-20T11:37:50;24.70;;;14.67;;
6053;SDS011;3055;50.886;14.814;2022-11-20T11:40:20;25.40;;;16.13;;
6053;SDS011;3055;50.886;14.814;2022-11-20T11:42:56;27.67;;;15.73;;
6053;SDS011;3055;50.886;14.814;2022-11-20T11:45:25;25.63;;;16.60;;
6053;SDS011;3055;50.886;14.814;2022-11-20T11:47:53;23.10;;;13.97;;
6053;SDS011;3055;50.886;14.814;2022-11-20T11:50:23;23.60;;;14.00;;
6053;SDS011;3055;50.886;14.814;2022-11-20T11:52:56;22.93;;;14.23;;
6053;SDS011;3055;50.886;14.814;2022-11-20T11:55:32;21.90;;;14.67;;
6053;SDS011;3055;50.886;14.814;2022-11-20T12:00:57;25.93;;;15.30;;
6053;SDS011;3055;50.886;14.814;2022-11-20T12:03:33;24.33;;;14.80;;
6053;SDS011;3055;50.886;14.814;2022-11-20T12:06:04;23.83;;;14.27;;
6053;SDS011;3055;50.886;14.814;2022-11-20T12:08:38;25.17;;;15.43;;
6053;SDS011;3055;50.886;14.814;2022-11-20T12:11:11;23.70;;;15.57;;
6053;SDS011;3055;50.886;14.814;2022-11-20T12:13:44;24.43;;;15.67;;
6053;SDS011;3055;50.886;14.814;2022-11-20T12:16:18;25.10;;;15.60;;
6053;SDS011;3055;50.886;14.814;2022-11-20T12:18:49;23.13;;;14.57;;
6053;SDS011;3055;50.886;14.814;2022-11-20T12:21:18;23.93;;;17.60;;
6053;SDS011;3055;50.886;14.814;2022-11-20T12:23:59;25.83;;;15.83;;
6053;SDS011;3055;50.886;14.814;2022-11-20T12:26:40;26.07;;;15.20;;
6053;SDS011;3055;50.886;14.814;2022-11-20T12:29:15;22.40;;;15.33;;
6053;SDS011;3055;50.886;14.814;2022-11-20T12:31:59;21.97;;;13.67;;
6053;SDS011;3055;50.886;14.814;2022-11-20T12:34:46;20.93;;;14.23;;
6053;SDS011;3055;50.886;14.814;2022-11-20T12:37:30;24.13;;;15.20;;
6053;SDS011;3055;50.886;14.814;2022-11-20T12:40:08;24.67;;;15.77;;
6053;SDS011;3055;50.886;14.814;2022-11-20T12:42:46;23.70;;;15.30;;
6053;SDS011;3055;50.886;14.814;2022-11-20T12:45:49;22.23;;;14.83;;
6053;SDS011;3055;50.886;14.814;2022-11-20T12:48:31;23.17;;;15.60;;
6053;SDS011;3055;50.886;14.814;2022-11-20T12:54:36;24.60;;;15.47;;
6053;SDS011;3055;50.886;14.814;2022-11-20T12:57:27;27.27;;;16.60;;
6053;SDS011;3055;50.886;14.814;2022-11-20T13:00:07;24.20;;;16.40;;
6053;SDS011;3055;50.886;14.814;2022-11-20T13:02:42;29.43;;;15.63;;
6053;SDS011;3055;50.886;14.814;2022-11-20T13:05:35;24.27;;;15.30;;
6053;SDS011;3055;50.886;14.814;2022-11-20T13:08:08;24.47;;;16.40;;
6053;SDS011;3055;50.886;14.814;2022-11-20T13:10:48;23.33;;;15.43;;
6053;SDS011;3055;50.886;14.814;2022-11-20T13:13:19;25.37;;;15.77;;
6053;SDS011;3055;50.886;14.814;2022-11-20T13:15:56;26.87;;;15.37;;
6053;SDS011;3055;50.886;14.814;2022-11-20T13:18:28;24.20;;;15.53;;
6053;SDS011;3055;50.886;14.814;2022-11-20T13:21:12;23.20;;;14.70;;
6053;SDS011;3055;50.886;14.814;2022-11-20T13:23:44;22.53;;;15.40;;
6053;SDS011;3055;50.886;14.814;2022-11-20T13:26:17;23.33;;;15.47;;
6053;SDS011;3055;50.886;14.814;2022-11-20T13:28:46;24.57;;;15.63;;
6053;SDS011;3055;50.886;14.814;2022-11-20T13:31:28;24.73;;;15.53;;
6053;SDS011;3055;50.886;14.814;2022-11-20T13:33:58;26.83;;;16.50;;
6053;SDS011;3055;50.886;14.814;2022-11-20T13:36:28;27.27;;;16.83;;
6053;SDS011;3055;50.886;14.814;2022-11-20T13:38:57;27.90;;;18.13;;
6053;SDS011;3055;50.886;14.814;2022-11-20T13:41:28;29.07;;;17.60;;
6053;SDS011;3055;50.886;14.814;2022-11-20T13:43:59;24.83;;;18.07;;
6053;SDS011;3055;50.886;14.814;2022-11-20T13:46:36;29.03;;;17.37;;
6053;SDS011;3055;50.886;14.814;2022-11-20T13:49:08;26.83;;;17.40;;
6053;SDS011;3055;50.886;14.814;2022-11-20T13:51:43;28.33;;;17.90;;
6053;SDS011;3055;50.886;14.814;2022-11-20T13:57:31;29.27;;;18.00;;
6053;SDS011;3055;50.886;14.814;2022-11-20T14:00:20;30.10;;;19.33;;
6053;SDS011;3055;50.886;14.814;2022-11-20T14:02:51;29.60;;;18.70;;
6053;SDS011;3055;50.886;14.814;2022-11-20T14:05:25;31.37;;;19.73;;
6053;SDS011;3055;50.886;14.814;2022-11-20T14:07:52;34.00;;;19.97;;
6053;SDS011;3055;50.886;14.814;2022-11-20T14:10:21;31.07;;;19.10;;
6053;SDS011;3055;50.886;14.814;2022-11-20T14:12:51;33.80;;;20.27;;
6053;SDS011;3055;50.886;14.814;2022-11-20T14:15:25;31.67;;;20.40;;
6053;SDS011;3055;50.886;14.814;2022-11-20T14:17:54;33.50;;;20.60;;
6053;SDS011;3055;50.886;14.814;2022-11-20T14:20:23;36.87;;;22.23;;
6053;SDS011;3055;50.886;14.814;2022-11-20T14:22:53;33.87;;;20.57;;
6053;SDS011;3055;50.886;14.814;2022-11-20T14:25:21;33.77;;;20.70;;
6053;SDS011;3055;50.886;14.814;2022-11-20T14:27:54;38.20;;;21.73;;
6053;SDS011;3055;50.886;14.814;2022-11-20T14:30:24;34.57;;;20.10;;
6053;SDS011;3055;50.886;14.814;2022-11-20T14:32:53;34.23;;;22.37;;
6053;SDS011;3055;50.886;14.814;2022-11-20T14:35:23;39.93;;;22.83;;
6053;SDS011;3055;50.886;14.814;2022-11-20T14:37:52;39.27;;;23.23;;
6053;SDS011;3055;50.886;14.814;2022-11-20T14:40:24;41.97;;;25.43;;
6053;SDS011;3055;50.886;14.814;2022-11-20T14:42:54;40.13;;;22.80;;
6053;SDS011;3055;50.886;14.814;2022-11-20T14:45:21;34.57;;;21.53;;
6053;SDS011;3055;50.886;14.814;2022-11-20T14:47:50;34.80;;;22.17;;
6053;SDS011;3055;50.886;14.814;2022-11-20T14:50:20;36.13;;;23.00;;
6053;SDS011;3055;50.886;14.814;2022-11-20T14:52:52;36.10;;;21.43;;
6053;SDS011;3055;50.886;14.814;2022-11-20T14:55:28;36.77;;;22.27;;
6053;SDS011;3055;50.886;14.814;2022-11-20T14:57:59;36.47;;;22.03;;
6053;SDS011;3055;50.886;14.814;2022-11-20T15:00:27;38.37;;;22.60;;
6053;SDS011;3055;50.886;14.814;2022-11-20T15:02:55;33.83;;;23.30;;
6053;SDS011;3055;50.886;14.814;2022-11-20T15:05:24;39.43;;;23.07;;
6053;SDS011;3055;50.886;14.814;2022-11-20T15:08:03;35.33;;;22.63;;
6053;SDS011;3055;50.886;14.814;2022-11-20T15:10:32;35.53;;;21.17;;